createdAt,value
2022-11-23T06:43:57.335Z,4.35
2022-11-23T06:45:00.498Z,7.81
2022-11-23T06:46:03.385Z,3.89
2022-11-23T06:47:06.501Z,5.55
2022-11-23T06:48:09.345Z,7.56
2022-11-23T06:49:12.528Z,3.89
2022-11-23T06:50:15.906Z,3.49
2022-11-23T06:51:19.085Z,2.76
2022-11-23T06:52:22.361Z,3.85
2022-11-23T06:53:25.449Z,4.86
2022-11-23T06:54:28.328Z,5.69
2022-11-23T06:55:31.518Z,4.48
2022-11-23T06:56:34.693Z,4.68
2022-11-23T06:57:37.353Z,3.75
2022-11-23T06:58:40.125Z,4.35
2022-11-23T06:59:44.896Z,5.39
2022-11-23T07:00:47.941Z,5.36
2022-11-23T07:01:50.780Z,4.92
2022-11-23T07:02:54.207Z,5.29
2022-11-23T07:03:56.912Z,3.16
2022-11-23T07:04:59.829Z,4.02
2022-11-23T07:06:02.818Z,3.93
2022-11-23T07:07:05.820Z,5.44
2022-11-23T07:08:08.977Z,5.81
2022-11-23T07:09:12.350Z,4.43
2022-11-23T07:10:15.346Z,3.96
2022-11-23T07:11:18.202Z,5.39
2022-11-23T07:12:21.489Z,4.19
2022-11-23T07:13:24.787Z,3.67
2022-11-23T07:14:27.650Z,3.56
2022-11-23T07:15:30.426Z,3.55
2022-11-23T07:16:33.712Z,5.12
2022-11-23T07:17:36.692Z,4.06
2022-11-23T07:18:39.961Z,2.62
2022-11-23T07:19:43.049Z,3.01
2022-11-23T07:20:45.820Z,4.11
2022-11-23T07:21:48.913Z,4.72
2022-11-23T07:22:51.891Z,3.42
2022-11-23T07:23:54.975Z,6.31
2022-11-23T07:24:58.274Z,7.43
2022-11-23T07:26:01.215Z,5.44
2022-11-23T07:27:04.736Z,7.18
2022-11-23T07:28:07.895Z,5.28
2022-11-23T07:29:10.973Z,4.12
2022-11-23T07:30:13.569Z,5.44
2022-11-23T07:31:16.933Z,5.68
2022-11-23T07:32:19.912Z,4.40
2022-11-23T07:33:22.887Z,3.52
2022-11-23T07:34:25.755Z,2.77
2022-11-23T07:35:28.521Z,4.66
2022-11-23T07:36:31.602Z,5.75
2022-11-23T07:37:34.587Z,5.51
2022-11-23T07:38:37.377Z,3.85
2022-11-23T07:39:58.203Z,4.52
2022-11-23T07:40:45.471Z,4.55
2022-11-23T07:41:51.208Z,5.84
2022-11-23T07:42:53.201Z,5.48
2022-11-23T07:43:56.022Z,3.50
2022-11-23T07:44:59.006Z,4.21
2022-11-23T07:46:02.299Z,3.85
2022-11-23T07:47:05.186Z,8.46
2022-11-23T07:48:07.824Z,7.73
2022-11-23T07:49:11.016Z,4.91
2022-11-23T07:50:14.328Z,3.98
2022-11-23T07:51:16.967Z,4.22
2022-11-23T07:52:19.846Z,4.11
2022-11-23T07:53:23.235Z,3.38
2022-11-23T07:54:26.613Z,3.27
2022-11-23T07:55:29.818Z,3.05
2022-11-23T07:56:32.775Z,3.94
2022-11-23T07:57:36.498Z,5.62
2022-11-23T07:58:39.150Z,4.01
2022-11-23T07:59:42.021Z,3.12
2022-11-23T08:00:45.001Z,3.75
2022-11-23T08:01:52.120Z,2.95
2022-11-23T08:03:25.657Z,3.80
2022-11-23T08:03:56.987Z,3.86
2022-11-23T08:05:00.196Z,4.25
2022-11-23T08:06:02.965Z,3.81
2022-11-23T08:07:05.590Z,3.52
2022-11-23T08:08:08.607Z,6.48
2022-11-23T08:09:11.594Z,4.69
2022-11-23T08:10:14.364Z,3.32
2022-11-23T08:11:17.827Z,5.06
2022-11-23T08:12:20.810Z,5.34
2022-11-23T08:13:24.031Z,3.88
2022-11-23T08:14:27.083Z,4.15
2022-11-23T08:15:29.749Z,4.75
2022-11-23T08:16:32.723Z,4.47
2022-11-23T08:17:37.743Z,5.60
2022-11-23T08:18:41.020Z,6.91
2022-11-23T08:19:43.906Z,4.63
2022-11-23T08:20:47.414Z,3.32
2022-11-23T08:21:50.482Z,5.19
2022-11-23T08:22:53.263Z,3.96
2022-11-23T08:23:56.427Z,5.20
2022-11-23T08:24:59.614Z,5.71
2022-11-23T08:26:02.496Z,3.46
2022-11-23T08:27:06.517Z,5.74
2022-11-23T08:28:09.563Z,3.99
2022-11-23T08:29:12.756Z,4.19
2022-11-23T08:30:15.842Z,5.78
2022-11-23T08:31:21.249Z,5.59
2022-11-23T08:32:25.380Z,4.71
2022-11-23T08:33:29.156Z,6.16
2022-11-23T08:34:32.774Z,5.65
2022-11-23T08:35:36.763Z,7.59
2022-11-23T08:36:39.652Z,6.57
2022-11-23T08:37:47.869Z,4.64
2022-11-23T08:38:51.220Z,6.93
2022-11-23T08:39:54.082Z,6.90
2022-11-23T08:40:57.170Z,6.45
2022-11-23T08:42:00.465Z,5.82
2022-11-23T08:43:04.884Z,8.41
2022-11-23T08:44:08.484Z,7.89
2022-11-23T08:45:11.231Z,4.89
2022-11-23T08:46:14.099Z,6.82
2022-11-23T08:47:17.196Z,5.72
2022-11-23T08:48:20.373Z,10.38
2022-11-23T08:49:23.547Z,7.62
2022-11-23T08:50:29.424Z,7.08
2022-11-23T08:51:32.063Z,5.13
2022-11-23T08:52:35.559Z,5.25
2022-11-23T08:53:38.642Z,7.75
2022-11-23T08:54:41.516Z,7.75
2022-11-23T08:55:44.590Z,6.32
2022-11-23T08:56:48.173Z,7.52
2022-11-23T08:57:53.608Z,5.66
2022-11-23T08:58:56.588Z,7.41
2022-11-23T09:00:02.838Z,5.48
2022-11-23T09:01:06.401Z,7.52
2022-11-23T09:02:09.209Z,9.12
2022-11-23T09:03:11.995Z,5.78
2022-11-23T09:04:20.339Z,7.13
2022-11-23T09:05:20.103Z,6.49
2022-11-23T09:06:22.955Z,5.34
2022-11-23T09:07:30.365Z,5.47
2022-11-23T09:08:33.759Z,7.28
2022-11-23T09:09:36.291Z,7.59
2022-11-23T09:10:39.265Z,6.59
2022-11-23T09:11:42.655Z,8.31
2022-11-23T09:12:45.739Z,6.48
2022-11-23T09:13:48.824Z,9.78
2022-11-23T09:14:51.591Z,6.57
2022-11-23T09:15:54.581Z,6.97
2022-11-23T09:16:57.562Z,8.59
2022-11-23T09:18:00.532Z,9.57
2022-11-23T09:19:07.154Z,8.68
2022-11-23T09:20:10.478Z,8.92
2022-11-23T09:21:13.655Z,7.91
2022-11-23T09:22:16.729Z,8.49
2022-11-23T09:23:25.108Z,7.96
2022-11-23T09:24:28.973Z,9.42
2022-11-23T09:25:33.230Z,8.63
2022-11-23T09:26:36.136Z,8.88
2022-11-23T09:27:39.087Z,8.39
2022-11-23T09:28:44.890Z,7.58
2022-11-23T09:29:47.394Z,7.98
2022-11-23T09:30:50.371Z,6.66
2022-11-23T09:31:53.649Z,7.04
2022-11-23T09:32:56.845Z,8.10
2022-11-23T09:33:59.922Z,8.67
2022-11-23T09:35:03.201Z,5.35
2022-11-23T09:36:06.080Z,5.09
2022-11-23T09:37:09.151Z,4.50
2022-11-23T09:38:13.249Z,6.15
2022-11-23T09:39:23.431Z,7.64
2022-11-23T09:40:31.421Z,6.17
2022-11-23T09:41:40.229Z,6.33
2022-11-23T09:42:43.208Z,6.99
2022-11-23T09:43:49.762Z,6.75
2022-11-23T09:44:52.533Z,5.62
2022-11-23T09:45:55.309Z,7.52
2022-11-23T09:46:58.476Z,7.92
2022-11-23T09:48:01.462Z,9.82
2022-11-23T09:49:05.055Z,11.42
2022-11-23T09:50:13.485Z,6.68
2022-11-23T09:51:16.330Z,6.34
2022-11-23T09:52:19.405Z,6.93
2022-11-23T09:53:22.704Z,5.82
2022-11-23T09:54:26.328Z,7.06
2022-11-23T09:55:29.976Z,4.84
2022-11-23T09:56:33.157Z,3.16
2022-11-23T09:57:36.338Z,4.90
2022-11-23T09:58:42.913Z,4.07
2022-11-23T09:59:46.286Z,4.74
2022-11-23T10:00:49.610Z,4.55
2022-11-23T10:01:52.594Z,4.68
2022-11-23T10:02:55.842Z,4.06
2022-11-23T10:03:58.811Z,6.48
2022-11-23T10:05:02.298Z,7.05
2022-11-23T10:06:05.606Z,4.97
2022-11-23T10:07:12.653Z,4.70
2022-11-23T10:08:21.569Z,4.84
2022-11-23T10:09:25.078Z,4.39
2022-11-23T10:10:28.370Z,4.08
2022-11-23T10:11:31.943Z,5.14
2022-11-23T10:12:39.777Z,4.82
2022-11-23T10:13:46.325Z,4.88
2022-11-23T10:14:48.961Z,4.95
2022-11-23T10:15:58.401Z,5.09
2022-11-23T10:17:01.049Z,6.96
2022-11-23T10:18:07.983Z,4.62
2022-11-23T10:19:11.009Z,5.79
2022-11-23T10:20:14.593Z,7.43
2022-11-23T10:21:17.869Z,5.55
2022-11-23T10:22:20.953Z,5.92
2022-11-23T10:23:24.044Z,5.01
2022-11-23T10:24:26.817Z,6.22
2022-11-23T10:25:37.547Z,4.76
2022-11-23T10:26:36.346Z,5.28
2022-11-23T10:27:39.845Z,6.15
2022-11-23T10:28:48.650Z,10.30
2022-11-23T10:29:57.568Z,8.05
2022-11-23T10:31:01.684Z,4.34
2022-11-23T10:32:04.698Z,4.28
2022-11-23T10:33:07.531Z,4.55
2022-11-23T10:34:12.768Z,6.28
2022-11-23T10:35:16.651Z,6.22
2022-11-23T10:36:19.539Z,7.75
2022-11-23T10:37:22.509Z,5.86
2022-11-23T10:38:25.999Z,6.12
2022-11-23T10:39:28.873Z,7.22
2022-11-23T10:40:32.553Z,6.78
2022-11-23T10:41:35.944Z,5.42
2022-11-23T10:42:40.460Z,5.26
2022-11-23T10:43:43.434Z,4.63
2022-11-23T10:44:46.559Z,5.04
2022-11-23T10:45:49.333Z,4.42
2022-11-23T10:46:52.581Z,4.05
2022-11-23T10:47:56.574Z,3.95
2022-11-23T10:49:00.102Z,6.95
2022-11-23T10:50:03.041Z,9.12
2022-11-23T10:51:06.368Z,7.59
2022-11-23T10:52:09.824Z,5.62
2022-11-23T10:53:15.258Z,6.95
2022-11-23T10:54:31.398Z,6.35
2022-11-23T10:55:35.585Z,5.42
2022-11-23T10:56:38.738Z,6.19
2022-11-23T10:57:42.016Z,5.77
2022-11-23T10:58:45.181Z,5.31
2022-11-23T11:01:09.362Z,6.45
2022-11-23T11:02:12.283Z,6.51
2022-11-23T11:03:15.625Z,7.69
2022-11-23T11:04:19.427Z,5.75
2022-11-23T11:05:40.248Z,5.91
2022-11-23T11:06:31.424Z,4.69
2022-11-23T11:07:34.473Z,3.68
2022-11-23T11:08:37.487Z,4.85
2022-11-23T11:09:40.866Z,5.20
2022-11-23T11:10:44.599Z,6.11
2022-11-23T11:11:47.665Z,5.41
2022-11-23T11:12:50.643Z,4.18
2022-11-23T11:13:54.540Z,4.97
2022-11-23T11:15:05.236Z,4.41
2022-11-23T11:16:04.960Z,4.36
2022-11-23T11:17:08.471Z,5.26
2022-11-23T11:18:12.254Z,6.36
2022-11-23T11:19:16.141Z,6.38
2022-11-23T11:20:19.948Z,5.38
2022-11-23T11:21:23.533Z,5.78
2022-11-23T11:22:28.757Z,5.19
2022-11-23T11:23:32.964Z,6.48
2022-11-23T11:24:45.166Z,4.36
2022-11-23T11:25:49.468Z,5.39
2022-11-23T11:26:53.492Z,5.42
2022-11-23T11:27:56.759Z,4.41
2022-11-23T11:29:00.653Z,5.19
2022-11-23T11:30:07.014Z,5.29
2022-11-23T11:31:14.727Z,5.19
2022-11-23T11:32:19.010Z,4.09
2022-11-23T11:33:22.789Z,4.94
2022-11-23T11:34:26.722Z,5.28
2022-11-23T11:35:30.830Z,7.97
2022-11-23T11:36:33.570Z,4.64
2022-11-23T11:37:37.611Z,5.85
2022-11-23T11:38:40.650Z,4.83
2022-11-23T11:39:56.586Z,6.06
2022-11-23T11:41:06.669Z,6.57
2022-11-23T11:42:09.657Z,9.83
2022-11-23T11:43:12.730Z,6.15
2022-11-23T11:44:16.428Z,6.67
2022-11-23T11:45:20.224Z,5.76
2022-11-23T11:46:31.113Z,5.25
2022-11-23T11:47:27.923Z,5.10
2022-11-23T11:48:30.999Z,5.79
2022-11-23T11:49:34.507Z,5.47
2022-11-23T11:50:37.874Z,4.69
2022-11-23T11:51:41.582Z,5.67
2022-11-23T11:52:45.481Z,5.64
2022-11-23T11:53:48.748Z,6.50
2022-11-23T11:54:52.101Z,8.06
2022-11-23T11:55:55.209Z,6.24
2022-11-23T11:56:58.296Z,6.18
2022-11-23T11:58:01.371Z,5.55
2022-11-23T11:59:04.703Z,6.34
2022-11-23T12:00:08.261Z,6.55
2022-11-23T12:01:11.445Z,5.89
2022-11-23T12:02:15.134Z,5.87
2022-11-23T12:03:18.809Z,6.81
2022-11-23T12:04:22.319Z,5.58
2022-11-23T12:05:25.591Z,6.17
2022-11-23T12:06:29.181Z,8.08
2022-11-23T12:07:33.635Z,7.74
2022-11-23T12:08:37.214Z,8.91
2022-11-23T12:09:40.268Z,10.15
2022-11-23T12:10:44.165Z,9.55
2022-11-23T12:11:47.456Z,8.51
2022-11-23T12:12:50.945Z,11.12
2022-11-23T12:13:54.126Z,9.12
2022-11-23T12:14:57.501Z,11.77
2022-11-23T12:16:00.821Z,12.51
2022-11-23T12:17:31.316Z,11.83
2022-11-23T12:18:11.811Z,12.66
2022-11-23T12:19:14.654Z,15.51
2022-11-23T12:20:17.824Z,16.09
2022-11-23T12:21:23.563Z,14.16
2022-11-23T12:22:28.582Z,15.10
2022-11-23T12:23:32.393Z,14.97
2022-11-23T12:24:35.768Z,14.64
2022-11-23T12:25:39.155Z,15.44
2022-11-23T12:26:42.743Z,13.02
2022-11-23T12:27:48.792Z,12.63
2022-11-23T12:28:50.953Z,9.66
2022-11-23T12:29:54.029Z,12.14
2022-11-23T12:30:57.041Z,15.22
2022-11-23T12:32:00.192Z,14.47
2022-11-23T12:33:07.242Z,13.12
2022-11-23T12:34:10.037Z,12.33
2022-11-23T12:35:13.021Z,12.42
2022-11-23T12:36:19.054Z,11.69
2022-11-23T12:37:21.125Z,12.74
2022-11-23T12:38:24.089Z,12.25
2022-11-23T12:39:27.074Z,13.72
2022-11-23T12:40:30.152Z,12.22
2022-11-23T12:41:33.435Z,12.60
2022-11-23T12:42:36.526Z,11.40
2022-11-23T12:43:40.005Z,11.88
2022-11-23T12:44:43.602Z,12.58
2022-11-23T12:45:47.601Z,19.81
2022-11-23T12:46:50.975Z,13.76
2022-11-23T12:47:54.803Z,13.26
2022-11-23T12:48:58.163Z,13.19
2022-11-23T12:50:01.350Z,13.55
2022-11-23T12:51:04.355Z,14.45
2022-11-23T12:52:07.540Z,14.08
2022-11-23T12:53:10.510Z,14.05
2022-11-23T12:54:13.897Z,15.45
2022-11-23T12:55:19.834Z,13.31
2022-11-23T12:56:21.482Z,13.32
2022-11-23T12:57:24.577Z,13.82
2022-11-23T12:58:27.636Z,13.65
2022-11-23T12:59:30.490Z,14.57
2022-11-23T13:00:33.746Z,13.62
2022-11-23T13:01:36.986Z,11.07
2022-11-23T13:02:40.442Z,15.07
2022-11-23T13:03:43.539Z,14.59
2022-11-23T13:04:46.812Z,15.10
2022-11-23T13:05:50.299Z,12.99
2022-11-23T13:07:26.268Z,14.06
2022-11-23T13:07:58.550Z,13.01
2022-11-23T13:09:02.106Z,12.40
2022-11-23T13:10:05.387Z,13.33
2022-11-23T13:11:08.674Z,14.39
2022-11-23T13:12:12.049Z,17.49
2022-11-23T13:13:16.332Z,17.84
2022-11-23T13:14:19.752Z,13.06
2022-11-23T13:15:23.246Z,15.64
2022-11-23T13:16:26.779Z,16.42
2022-11-23T13:17:29.814Z,16.33
2022-11-23T13:18:33.190Z,15.21
2022-11-23T13:19:36.373Z,16.17
2022-11-23T13:20:39.266Z,16.48
2022-11-23T13:21:42.532Z,15.79
2022-11-23T13:22:45.823Z,20.83
2022-11-23T13:23:48.699Z,18.08
2022-11-23T13:24:51.771Z,17.13
2022-11-23T13:25:54.752Z,15.26
2022-11-23T13:26:57.847Z,19.22
2022-11-23T13:28:00.815Z,21.14
2022-11-23T13:29:03.882Z,18.01
2022-11-23T13:30:07.231Z,16.90
2022-11-23T13:31:19.374Z,17.81
2022-11-23T13:32:15.842Z,16.28
2022-11-23T13:33:23.598Z,18.92
2022-11-23T13:34:23.808Z,19.41
2022-11-23T13:35:26.671Z,19.68
2022-11-23T13:36:49.243Z,16.51
2022-11-23T13:37:34.683Z,19.08
2022-11-23T13:38:37.953Z,19.66
2022-11-23T13:39:41.435Z,18.67
2022-11-23T13:40:44.723Z,25.37
2022-11-23T13:41:47.912Z,23.98
2022-11-23T13:42:50.889Z,22.95
2022-11-23T13:43:54.174Z,27.16
2022-11-23T13:44:57.452Z,22.37
2022-11-23T13:46:00.427Z,23.02
2022-11-23T13:47:03.301Z,22.25
2022-11-23T13:48:06.375Z,20.32
2022-11-23T13:49:09.564Z,24.06
2022-11-23T13:50:12.538Z,24.11
2022-11-23T13:51:15.613Z,24.57
2022-11-23T13:52:18.608Z,26.83
2022-11-23T13:53:21.889Z,25.57
2022-11-23T13:54:24.960Z,27.78
2022-11-23T13:55:28.454Z,24.76
2022-11-23T13:56:31.643Z,23.12
2022-11-23T13:57:34.924Z,26.87
2022-11-23T13:58:38.103Z,25.09
2022-11-23T13:59:41.606Z,29.03
2022-11-23T14:00:44.939Z,26.14
2022-11-23T14:01:47.777Z,30.26
2022-11-23T14:02:50.612Z,28.19
2022-11-23T14:03:53.902Z,25.92
2022-11-23T14:04:56.992Z,26.04
2022-11-23T14:06:00.163Z,23.21
2022-11-23T14:07:03.450Z,25.24
2022-11-23T14:08:06.646Z,24.32
2022-11-23T14:09:10.047Z,23.05
2022-11-23T14:10:13.832Z,27.66
2022-11-23T14:11:17.410Z,22.54
2022-11-23T14:12:20.280Z,24.86
2022-11-23T14:13:23.662Z,23.70
2022-11-23T14:14:27.253Z,21.99
2022-11-23T14:15:30.453Z,21.73
2022-11-23T14:16:34.322Z,26.02
2022-11-23T14:17:37.331Z,23.70
2022-11-23T14:18:40.500Z,23.77
2022-11-23T14:19:43.910Z,22.99
2022-11-23T14:20:47.068Z,22.98
2022-11-23T14:21:50.770Z,23.82
2022-11-23T14:22:53.835Z,25.11
2022-11-23T14:23:56.916Z,20.97
2022-11-23T14:25:00.117Z,23.45
2022-11-23T14:26:04.101Z,20.21
2022-11-23T14:27:38.970Z,23.44
2022-11-23T14:28:12.222Z,20.36
2022-11-23T14:29:15.903Z,18.82
2022-11-23T14:30:19.088Z,19.15
2022-11-23T14:31:22.321Z,21.21
2022-11-23T14:32:25.242Z,28.18
2022-11-23T14:33:28.419Z,24.25
2022-11-23T14:34:32.261Z,21.38
2022-11-23T14:35:35.713Z,23.61
2022-11-23T14:36:38.892Z,23.12
2022-11-23T14:37:42.077Z,20.05
2022-11-23T14:38:45.758Z,22.05
2022-11-23T14:39:49.157Z,19.86
2022-11-23T14:40:52.744Z,22.22
2022-11-23T14:41:56.446Z,22.16
2022-11-23T14:42:59.523Z,25.59
2022-11-23T14:44:02.698Z,23.74
2022-11-23T14:45:05.987Z,22.89
2022-11-23T14:46:09.046Z,18.96
2022-11-23T14:47:12.440Z,20.42
2022-11-23T14:48:15.424Z,16.02
2022-11-23T14:49:18.910Z,17.78
2022-11-23T14:50:22.192Z,18.29
2022-11-23T14:51:25.399Z,14.03
2022-11-23T14:52:29.075Z,17.16
2022-11-23T14:53:32.362Z,15.58
2022-11-23T14:54:35.802Z,16.72
2022-11-23T14:55:39.249Z,20.04
2022-11-23T14:56:42.312Z,18.96
2022-11-23T14:57:45.388Z,17.78
2022-11-23T14:58:48.672Z,23.35
2022-11-23T14:59:51.759Z,22.91
2022-11-23T15:00:55.049Z,22.31
2022-11-23T15:01:57.932Z,20.73
2022-11-23T15:03:15.341Z,19.41
2022-11-23T15:04:06.568Z,18.61
2022-11-23T15:05:09.683Z,20.30
2022-11-23T15:06:13.222Z,23.15
2022-11-23T15:07:17.196Z,19.15
2022-11-23T15:08:21.316Z,22.24
2022-11-23T15:09:25.015Z,19.66
2022-11-23T15:10:28.688Z,16.46
2022-11-23T15:11:31.676Z,15.88
2022-11-23T15:12:35.066Z,15.79
2022-11-23T15:13:38.141Z,18.08
2022-11-23T15:14:41.533Z,17.25
2022-11-23T15:15:44.706Z,17.58
2022-11-23T15:16:48.341Z,16.67
2022-11-23T15:17:51.590Z,17.95
2022-11-23T15:18:54.655Z,16.31
2022-11-23T15:19:57.744Z,18.20
2022-11-23T15:21:01.133Z,16.94
2022-11-23T15:22:04.838Z,18.36
2022-11-23T15:23:07.803Z,18.20
2022-11-23T15:24:10.980Z,17.28
2022-11-23T15:25:13.957Z,18.96
2022-11-23T15:26:42.110Z,19.78
2022-11-23T15:27:21.453Z,17.02
2022-11-23T15:28:24.525Z,19.21
2022-11-23T15:29:27.812Z,20.78
2022-11-23T15:30:30.913Z,20.02
2022-11-23T15:31:35.347Z,19.38
2022-11-23T15:32:39.043Z,18.71
2022-11-23T15:33:42.179Z,19.74
2022-11-23T15:34:45.660Z,18.02
2022-11-23T15:35:48.756Z,19.20
2022-11-23T15:36:52.438Z,17.41
2022-11-23T15:37:55.523Z,17.08
2022-11-23T15:38:59.116Z,15.17
2022-11-23T15:40:02.195Z,18.19
2022-11-23T15:41:05.983Z,17.73
2022-11-23T15:42:10.326Z,16.74
2022-11-23T15:43:14.289Z,18.76
2022-11-23T15:44:17.368Z,17.71
2022-11-23T15:45:21.072Z,16.23
2022-11-23T15:46:24.216Z,18.48
2022-11-23T15:47:27.925Z,16.11
2022-11-23T15:48:31.127Z,16.06
2022-11-23T15:49:34.465Z,14.82
2022-11-23T15:50:37.602Z,17.79
2022-11-23T15:51:40.668Z,15.41
2022-11-23T15:52:46.525Z,18.23
2022-11-23T15:53:49.706Z,18.45
2022-11-23T15:54:52.992Z,16.11
2022-11-23T15:55:55.865Z,17.85
2022-11-23T15:56:58.930Z,15.85
2022-11-23T15:58:01.923Z,16.65
2022-11-23T15:59:05.504Z,14.40
2022-11-23T16:00:08.791Z,19.90
2022-11-23T16:01:11.982Z,17.30
2022-11-23T16:02:15.650Z,15.56
2022-11-23T16:03:18.643Z,15.76
2022-11-23T16:04:21.407Z,19.02
2022-11-23T16:05:24.481Z,14.63
2022-11-23T16:06:27.667Z,17.98
2022-11-23T16:07:30.864Z,18.63
2022-11-23T16:08:34.352Z,17.68
2022-11-23T16:09:53.927Z,18.88
2022-11-23T16:10:42.754Z,15.07
2022-11-23T16:11:46.251Z,13.69
2022-11-23T16:12:49.124Z,16.05
2022-11-23T16:13:52.415Z,15.08
2022-11-23T16:14:55.782Z,14.75
2022-11-23T16:15:59.089Z,15.03
2022-11-23T16:17:02.517Z,16.96
2022-11-23T16:18:05.440Z,16.43
2022-11-23T16:19:08.411Z,16.57
2022-11-23T16:20:11.696Z,14.42
2022-11-23T16:21:15.703Z,16.84
2022-11-23T16:22:18.983Z,16.36
2022-11-23T16:23:22.178Z,12.91
2022-11-23T16:24:25.545Z,15.53
2022-11-23T16:25:29.146Z,16.77
2022-11-23T16:26:32.575Z,15.33
2022-11-23T16:27:35.822Z,17.38
2022-11-23T16:28:38.692Z,16.92
2022-11-23T16:29:41.969Z,14.26
2022-11-23T16:30:45.013Z,18.22
2022-11-23T16:31:47.971Z,15.80
2022-11-23T16:32:50.698Z,14.07
2022-11-23T16:33:53.568Z,14.83
2022-11-23T16:34:56.552Z,14.86
2022-11-23T16:35:59.425Z,16.58
2022-11-23T16:37:02.396Z,14.95
2022-11-23T16:38:05.474Z,14.45
2022-11-23T16:39:08.654Z,14.20
2022-11-23T16:40:11.941Z,12.89
2022-11-23T16:41:14.832Z,15.13
2022-11-23T16:42:17.904Z,17.25
2022-11-23T16:43:21.340Z,15.37
2022-11-23T16:44:24.564Z,17.43
2022-11-23T16:45:27.563Z,16.15
2022-11-23T16:46:31.021Z,18.52
2022-11-23T16:47:34.126Z,18.25
2022-11-23T16:48:37.322Z,13.34
2022-11-23T16:49:40.576Z,15.31
2022-11-23T16:50:44.175Z,20.58
2022-11-23T16:51:47.648Z,16.86
2022-11-23T16:52:51.463Z,17.10
2022-11-23T16:54:12.934Z,15.40
2022-11-23T16:54:59.046Z,18.20
2022-11-23T16:56:02.747Z,20.33
2022-11-23T16:57:06.130Z,13.99
2022-11-23T16:58:09.611Z,16.48
2022-11-23T16:59:13.245Z,14.35
2022-11-23T17:00:16.800Z,13.53
2022-11-23T17:01:19.683Z,12.81
2022-11-23T17:02:22.712Z,14.50
2022-11-23T17:03:26.143Z,16.68
2022-11-23T17:04:30.037Z,12.68
2022-11-23T17:05:33.224Z,16.90
2022-11-23T17:06:36.513Z,16.04
2022-11-23T17:07:39.373Z,14.73
2022-11-23T17:08:42.157Z,13.38
2022-11-23T17:09:45.236Z,17.75
2022-11-23T17:10:48.612Z,23.31
2022-11-23T17:11:52.118Z,15.48
2022-11-23T17:12:55.388Z,15.09
2022-11-23T17:13:59.108Z,13.68
2022-11-23T17:15:02.270Z,16.34
2022-11-23T17:16:05.342Z,16.15
2022-11-23T17:17:08.604Z,14.53
2022-11-23T17:18:11.708Z,15.77
2022-11-23T17:19:14.790Z,17.23
2022-11-23T17:20:18.003Z,16.46
2022-11-23T17:21:22.489Z,20.25
2022-11-23T17:22:25.791Z,16.41
2022-11-23T17:23:28.770Z,17.25
2022-11-23T17:24:32.487Z,16.60
2022-11-23T17:25:35.624Z,16.01
2022-11-23T17:26:39.012Z,16.65
2022-11-23T17:27:41.782Z,17.28
2022-11-23T17:28:44.652Z,19.41
2022-11-23T17:29:48.357Z,15.05
2022-11-23T17:30:52.026Z,14.02
2022-11-23T17:31:55.130Z,18.47
2022-11-23T17:32:58.985Z,21.71
2022-11-23T17:34:01.890Z,18.41
2022-11-23T17:35:05.090Z,21.08
2022-11-23T17:36:08.263Z,18.56
2022-11-23T17:37:11.154Z,18.92
2022-11-23T17:38:14.624Z,19.10
2022-11-23T17:39:17.802Z,17.98
2022-11-23T17:40:21.304Z,15.29
2022-11-23T17:41:24.580Z,17.24
2022-11-23T17:42:27.660Z,17.30
2022-11-23T17:43:31.655Z,14.14
2022-11-23T17:44:34.732Z,13.91
2022-11-23T17:45:37.713Z,16.33
2022-11-23T17:46:41.349Z,19.77
2022-11-23T17:47:44.296Z,17.34
2022-11-23T17:48:47.263Z,15.55
2022-11-23T17:49:51.065Z,20.73
2022-11-23T17:50:54.659Z,17.34
2022-11-23T17:51:57.856Z,18.64
2022-11-23T17:53:01.222Z,19.36
2022-11-23T17:54:04.206Z,19.26
2022-11-23T17:55:07.608Z,17.98
2022-11-23T17:56:10.764Z,21.75
2022-11-23T17:57:14.368Z,14.97
2022-11-23T17:58:17.427Z,17.76
2022-11-23T17:59:20.621Z,19.84
2022-11-23T18:00:23.483Z,19.79
2022-11-23T18:01:27.299Z,17.17
2022-11-23T18:02:30.774Z,18.87
2022-11-23T18:03:35.064Z,20.29
2022-11-23T18:04:38.166Z,16.56
2022-11-23T18:05:41.045Z,16.44
2022-11-23T18:06:44.233Z,15.72
2022-11-23T18:07:47.347Z,15.65
2022-11-23T18:08:50.473Z,17.11
2022-11-23T18:09:53.765Z,17.69
2022-11-23T18:10:59.178Z,18.82
2022-11-23T18:12:01.871Z,19.89
2022-11-23T18:13:05.474Z,21.92
2022-11-23T18:14:09.064Z,18.39
2022-11-23T18:15:12.743Z,16.48
2022-11-23T18:16:16.450Z,23.56
2022-11-23T18:17:19.513Z,18.76
2022-11-23T18:18:22.817Z,15.73
2022-11-23T18:19:26.291Z,17.65
2022-11-23T18:20:29.369Z,18.51
2022-11-23T18:21:32.550Z,13.27
2022-11-23T18:22:36.766Z,16.45
2022-11-23T18:23:39.946Z,18.77
2022-11-23T18:24:42.609Z,17.15
2022-11-23T18:25:45.787Z,17.00
2022-11-23T18:26:48.865Z,13.97
2022-11-23T18:27:51.949Z,15.81
2022-11-23T18:28:55.233Z,17.60
2022-11-23T18:29:58.932Z,15.89
2022-11-23T18:31:02.065Z,16.85
2022-11-23T18:32:04.989Z,18.67
2022-11-23T18:33:08.674Z,17.35
2022-11-23T18:34:11.873Z,14.72
2022-11-23T18:35:15.151Z,18.20
2022-11-23T18:36:17.912Z,18.38
2022-11-23T18:37:21.719Z,14.72
2022-11-23T18:38:24.689Z,15.92
2022-11-23T18:39:27.864Z,18.98
2022-11-23T18:40:31.282Z,25.15
2022-11-23T18:41:34.546Z,23.18
2022-11-23T18:42:37.326Z,17.01
2022-11-23T18:43:40.393Z,19.04
2022-11-23T18:44:43.677Z,18.97
2022-11-23T18:45:46.651Z,23.46
2022-11-23T18:46:50.899Z,18.05
2022-11-23T18:47:53.942Z,20.03
2022-11-23T18:48:57.036Z,19.68
2022-11-23T18:50:04.983Z,17.49
2022-11-23T18:51:05.253Z,14.45
2022-11-23T18:52:09.658Z,16.25
2022-11-23T18:53:12.922Z,18.18
2022-11-23T18:54:16.733Z,20.48
2022-11-23T18:55:20.029Z,16.96
2022-11-23T18:56:23.615Z,17.98
2022-11-23T18:57:26.668Z,20.04
2022-11-23T18:58:30.470Z,15.79
2022-11-23T18:59:56.795Z,21.61
2022-11-23T19:00:38.265Z,17.75
2022-11-23T19:01:41.494Z,15.51
2022-11-23T19:02:44.762Z,15.39
2022-11-23T19:03:48.019Z,17.60
2022-11-23T19:04:51.617Z,17.17
2022-11-23T19:05:55.215Z,21.92
2022-11-23T19:06:58.143Z,19.24
2022-11-23T19:08:01.305Z,21.16
2022-11-23T19:09:04.545Z,18.04
2022-11-23T19:10:07.435Z,16.67
2022-11-23T19:11:10.815Z,18.57
2022-11-23T19:12:14.407Z,17.31
2022-11-23T19:13:17.570Z,18.31
2022-11-23T19:14:20.655Z,18.51
2022-11-23T19:15:23.728Z,21.71
2022-11-23T19:16:27.123Z,18.22
2022-11-23T19:17:30.151Z,16.44
2022-11-23T19:18:33.188Z,15.63
2022-11-23T19:19:36.369Z,12.22
2022-11-23T19:20:39.854Z,19.81
2022-11-23T19:21:42.923Z,18.63
2022-11-23T19:22:46.011Z,19.35
2022-11-23T19:23:49.208Z,22.11
2022-11-23T19:24:52.363Z,17.61
2022-11-23T19:25:55.457Z,19.99
2022-11-23T19:26:58.633Z,17.01
2022-11-23T19:28:02.222Z,19.05
2022-11-23T19:29:06.335Z,20.37
2022-11-23T19:30:09.533Z,19.95
2022-11-23T19:31:13.847Z,22.96
2022-11-23T19:32:19.062Z,17.80
2022-11-23T19:33:22.124Z,16.13
2022-11-23T19:34:25.429Z,22.54
2022-11-23T19:35:29.208Z,24.91
2022-11-23T19:36:32.914Z,18.06
2022-11-23T19:37:36.509Z,20.34
2022-11-23T19:38:39.874Z,28.60
2022-11-23T19:39:43.795Z,27.52
2022-11-23T19:40:46.647Z,28.15
2022-11-23T19:41:49.526Z,24.15
2022-11-23T19:42:53.220Z,19.59
2022-11-23T19:43:56.812Z,18.97
2022-11-23T19:45:00.413Z,16.75
2022-11-23T19:46:03.788Z,19.78
2022-11-23T19:47:13.212Z,20.90
2022-11-23T19:48:11.510Z,23.58
2022-11-23T19:49:14.574Z,26.78
2022-11-23T19:50:18.252Z,19.44
2022-11-23T19:51:21.642Z,17.07
2022-11-23T19:52:41.770Z,18.51
2022-11-23T19:53:31.020Z,16.65
2022-11-23T19:54:34.160Z,18.51
2022-11-23T19:55:37.146Z,20.66
2022-11-23T19:56:40.736Z,18.58
2022-11-23T19:57:44.452Z,19.09
2022-11-23T19:58:47.300Z,21.38
2022-11-23T19:59:50.063Z,17.45
2022-11-23T20:00:53.353Z,19.41
2022-11-23T20:01:56.576Z,14.95
2022-11-23T20:02:59.920Z,15.33
2022-11-23T20:04:08.300Z,16.94
2022-11-23T20:05:08.389Z,17.22
2022-11-23T20:06:11.526Z,21.91
2022-11-23T20:07:14.653Z,19.31
2022-11-23T20:08:18.192Z,24.28
2022-11-23T20:09:21.265Z,17.35
2022-11-23T20:10:24.451Z,16.54
2022-11-23T20:11:28.040Z,21.39
2022-11-23T20:12:31.330Z,20.92
2022-11-23T20:13:34.514Z,19.39
2022-11-23T20:14:37.800Z,16.03
2022-11-23T20:15:41.670Z,14.70
2022-11-23T20:16:44.905Z,16.72
2022-11-23T20:17:48.154Z,16.38
2022-11-23T20:18:51.337Z,18.10
2022-11-23T20:19:54.635Z,20.64
2022-11-23T20:20:58.425Z,24.15
2022-11-23T20:22:02.108Z,21.65
2022-11-23T20:23:05.707Z,19.09
2022-11-23T20:24:09.004Z,20.45
2022-11-23T20:25:12.375Z,14.04
2022-11-23T20:26:15.877Z,19.90
2022-11-23T20:27:19.043Z,33.68
2022-11-23T20:28:22.228Z,17.48
2022-11-23T20:29:25.814Z,12.67
2022-11-23T20:30:29.106Z,15.68
2022-11-23T20:31:32.473Z,16.89
2022-11-23T20:32:35.771Z,13.79
2022-11-23T20:33:38.873Z,12.08